sensor_id;sensor_type;location;lat;lon;timestamp;pressure;altitude;pressure_sealevel;temperature;humidity
8140;BME280;4111;50.972;7.072;2022-12-07T00:01:32;101257.13;;;6.07;100.00
8140;BME280;4111;50.972;7.072;2022-12-07T00:04:01;101246.09;;;6.02;100.00
8140;BME280;4111;50.972;7.072;2022-12-07T00:06:32;101252.53;;;6.01;100.00
8140;BME280;4111;50.972;7.072;2022-12-07T00:08:59;101245.09;;;6.03;100.00
8140;BME280;4111;50.972;7.072;2022-12-07T00:11:26;101246.75;;;6.04;100.00
8140;BME280;4111;50.972;7.072;2022-12-07T00:13:55;101255.03;;;6.09;100.00
8140;BME280;4111;50.972;7.072;2022-12-07T00:16:24;101255.25;;;6.08;100.00
8140;BME280;4111;50.972;7.072;2022-12-07T00:18:52;101255.03;;;6.09;100.00
8140;BME280;4111;50.972;7.072;2022-12-07T00:21:21;101252.97;;;6.11;100.00
8140;BME280;4111;50.972;7.072;2022-12-07T00:23:50;101240.94;;;6.07;100.00
8140;BME280;4111;50.972;7.072;2022-12-07T00:28:49;101239.47;;;5.98;100.00
8140;BME280;4111;50.972;7.072;2022-12-07T00:31:18;101239.25;;;6.00;100.00
8140;BME280;4111;50.972;7.072;2022-12-07T00:33:45;101235.53;;;6.01;100.00
8140;BME280;4111;50.972;7.072;2022-12-07T00:36:18;101235.56;;;6.07;100.00
8140;BME280;4111;50.972;7.072;2022-12-07T00:38:52;101232.47;;;6.10;100.00
8140;BME280;4111;50.972;7.072;2022-12-07T00:41:20;101233.47;;;6.09;100.00
8140;BME280;4111;50.972;7.072;2022-12-07T00:43:48;101232.22;;;6.12;100.00
8140;BME280;4111;50.972;7.072;2022-12-07T00:46:15;101228.75;;;6.18;100.00
8140;BME280;4111;50.972;7.072;2022-12-07T00:48:42;101234.94;;;6.19;100.00
8140;BME280;4111;50.972;7.072;2022-12-07T00:51:11;101223.75;;;6.22;100.00
8140;BME280;4111;50.972;7.072;2022-12-07T00:53:38;101229.38;;;6.20;100.00
8140;BME280;4111;50.972;7.072;2022-12-07T00:56:08;101219.78;;;6.18;100.00
8140;BME280;4111;50.972;7.072;2022-12-07T00:58:35;101217.72;;;6.20;100.00
8140;BME280;4111;50.972;7.072;2022-12-07T01:01:03;101220.66;;;6.18;100.00
8140;BME280;4111;50.972;7.072;2022-12-07T01:03:30;101224.56;;;6.15;100.00
8140;BME280;4111;50.972;7.072;2022-12-07T01:05:57;101214.41;;;6.18;100.00
8140;BME280;4111;50.972;7.072;2022-12-07T01:08:25;101221.25;;;6.13;100.00
8140;BME280;4111;50.972;7.072;2022-12-07T01:11:00;101225.19;;;6.18;100.00
8140;BME280;4111;50.972;7.072;2022-12-07T01:13:27;101227.25;;;6.15;100.00
8140;BME280;4111;50.972;7.072;2022-12-07T01:15:57;101226.00;;;6.11;100.00
8140;BME280;4111;50.972;7.072;2022-12-07T01:18:30;101231.84;;;6.08;100.00
8140;BME280;4111;50.972;7.072;2022-12-07T01:23:26;101226.44;;;6.08;100.00
8140;BME280;4111;50.972;7.072;2022-12-07T01:25:57;101229.13;;;6.08;100.00
8140;BME280;4111;50.972;7.072;2022-12-07T01:28:24;101236.38;;;6.08;100.00
8140;BME280;4111;50.972;7.072;2022-12-07T01:30:58;101233.47;;;6.09;100.00
8140;BME280;4111;50.972;7.072;2022-12-07T01:33:30;101230.59;;;6.04;100.00
8140;BME280;4111;50.972;7.072;2022-12-07T01:36:27;101228.50;;;6.06;100.00
8140;BME280;4111;50.972;7.072;2022-12-07T01:38:57;101231.41;;;6.05;100.00
8140;BME280;4111;50.972;7.072;2022-12-07T01:41:27;101231.59;;;6.03;100.00
8140;BME280;4111;50.972;7.072;2022-12-07T01:44:20;101229.34;;;6.07;100.00
8140;BME280;4111;50.972;7.072;2022-12-07T01:46:47;101223.13;;;6.06;100.00
8140;BME280;4111;50.972;7.072;2022-12-07T01:49:18;101220.63;;;6.05;100.00
8140;BME280;4111;50.972;7.072;2022-12-07T01:51:48;101222.69;;;6.09;100.00
8140;BME280;4111;50.972;7.072;2022-12-07T01:54:16;101220.81;;;6.10;100.00
8140;BME280;4111;50.972;7.072;2022-12-07T01:56:48;101216.69;;;6.07;100.00
8140;BME280;4111;50.972;7.072;2022-12-07T01:59:17;101216.06;;;6.05;100.00
8140;BME280;4111;50.972;7.072;2022-12-07T02:01:44;101215.84;;;6.07;100.00
8140;BME280;4111;50.972;7.072;2022-12-07T02:04:11;101215.66;;;6.08;100.00
8140;BME280;4111;50.972;7.072;2022-12-07T02:06:38;101208.81;;;6.12;100.00
8140;BME280;4111;50.972;7.072;2022-12-07T02:09:05;101203.44;;;6.12;100.00
8140;BME280;4111;50.972;7.072;2022-12-07T02:11:31;101206.94;;;6.13;100.00
8140;BME280;4111;50.972;7.072;2022-12-07T02:13:58;101204.25;;;6.06;100.00
8140;BME280;4111;50.972;7.072;2022-12-07T02:28:18;101202.78;;;5.97;100.00
8140;BME280;4111;50.972;7.072;2022-12-07T02:30:49;101204.78;;;5.82;100.00
8140;BME280;4111;50.972;7.072;2022-12-07T02:33:30;101202.31;;;5.87;100.00
8140;BME280;4111;50.972;7.072;2022-12-07T02:36:04;101202.31;;;5.93;100.00
8140;BME280;4111;50.972;7.072;2022-12-07T02:38:45;101197.97;;;5.92;100.00
8140;BME280;4111;50.972;7.072;2022-12-07T02:41:36;101200.28;;;6.02;100.00
8140;BME280;4111;50.972;7.072;2022-12-07T02:44:08;101202.78;;;5.97;100.00
8140;BME280;4111;50.972;7.072;2022-12-07T02:46:40;101194.06;;;6.02;100.00
8140;BME280;4111;50.972;7.072;2022-12-07T02:49:08;101194.88;;;6.02;100.00
8140;BME280;4111;50.972;7.072;2022-12-07T02:51:39;101185.16;;;6.01;100.00
8140;BME280;4111;50.972;7.072;2022-12-07T02:54:15;101195.47;;;5.91;100.00
8140;BME280;4111;50.972;7.072;2022-12-07T02:57:35;101186.13;;;5.87;100.00
8140;BME280;4111;50.972;7.072;2022-12-07T03:02:40;101186.59;;;5.97;100.00
8140;BME280;4111;50.972;7.072;2022-12-07T03:05:27;101189.03;;;5.92;100.00
8140;BME280;4111;50.972;7.072;2022-12-07T03:08:06;101195.06;;;5.94;100.00
8140;BME280;4111;50.972;7.072;2022-12-07T03:13:39;101199.00;;;5.91;100.00
8140;BME280;4111;50.972;7.072;2022-12-07T03:16:14;101194.06;;;5.95;100.00
8140;BME280;4111;50.972;7.072;2022-12-07T03:18:50;101195.72;;;5.96;100.00
8140;BME280;4111;50.972;7.072;2022-12-07T03:21:24;101204.03;;;6.01;100.00
8140;BME280;4111;50.972;7.072;2022-12-07T03:23:56;101194.88;;;6.02;100.00
8140;BME280;4111;50.972;7.072;2022-12-07T03:26:30;101197.81;;;6.07;100.00
8140;BME280;4111;50.972;7.072;2022-12-07T03:29:00;101193.66;;;6.05;100.00
8140;BME280;4111;50.972;7.072;2022-12-07T03:31:33;101197.19;;;6.05;100.00
8140;BME280;4111;50.972;7.072;2022-12-07T03:34:18;101190.53;;;6.01;100.00
8140;BME280;4111;50.972;7.072;2022-12-07T03:36:52;101200.69;;;6.06;100.00
8140;BME280;4111;50.972;7.072;2022-12-07T03:41:53;101192.84;;;6.04;100.00
8140;BME280;4111;50.972;7.072;2022-12-07T03:44:20;101192.00;;;5.97;100.00
8140;BME280;4111;50.972;7.072;2022-12-07T03:47:14;101194.50;;;5.99;100.00
8140;BME280;4111;50.972;7.072;2022-12-07T03:49:51;101198.00;;;5.99;100.00
8140;BME280;4111;50.972;7.072;2022-12-07T03:52:33;101194.69;;;5.97;100.00
8140;BME280;4111;50.972;7.072;2022-12-07T03:57:47;101193.25;;;6.01;100.00
8140;BME280;4111;50.972;7.072;2022-12-07T04:00:17;101194.06;;;5.95;100.00
8140;BME280;4111;50.972;7.072;2022-12-07T04:02:44;101195.28;;;5.92;100.00
8140;BME280;4111;50.972;7.072;2022-12-07T04:05:11;101188.84;;;5.93;100.00
8140;BME280;4111;50.972;7.072;2022-12-07T04:07:38;101186.97;;;5.94;100.00
8140;BME280;4111;50.972;7.072;2022-12-07T04:10:06;101189.50;;;6.02;100.00
8140;BME280;4111;50.972;7.072;2022-12-07T04:12:33;101194.47;;;6.05;100.00
8140;BME280;4111;50.972;7.072;2022-12-07T04:14:59;101197.81;;;6.07;100.00
8140;BME280;4111;50.972;7.072;2022-12-07T04:17:26;101196.34;;;6.05;100.00
8140;BME280;4111;50.972;7.072;2022-12-07T04:19:52;101198.63;;;6.01;100.00
8140;BME280;4111;50.972;7.072;2022-12-07T04:22:18;101197.75;;;5.94;100.00
8140;BME280;4111;50.972;7.072;2022-12-07T04:24:45;101199.81;;;5.92;100.00
8140;BME280;4111;50.972;7.072;2022-12-07T04:27:11;101194.44;;;5.92;100.00
8140;BME280;4111;50.972;7.072;2022-12-07T04:29:38;101189.28;;;5.97;100.00
8140;BME280;4111;50.972;7.072;2022-12-07T04:32:04;101189.50;;;5.95;100.00
8140;BME280;4111;50.972;7.072;2022-12-07T04:34:31;101194.63;;;5.90;100.00
8140;BME280;4111;50.972;7.072;2022-12-07T04:36:57;101194.06;;;5.95;100.00
8140;BME280;4111;50.972;7.072;2022-12-07T04:39:29;101182.44;;;5.94;100.00
8140;BME280;4111;50.972;7.072;2022-12-07T04:41:56;101190.50;;;5.94;100.00
8140;BME280;4111;50.972;7.072;2022-12-07T04:44:24;101179.72;;;5.94;100.00
8140;BME280;4111;50.972;7.072;2022-12-07T04:46:51;101186.59;;;5.97;100.00
8140;BME280;4111;50.972;7.072;2022-12-07T04:49:19;101182.00;;;5.91;100.00
8140;BME280;4111;50.972;7.072;2022-12-07T04:51:46;101191.53;;;5.93;100.00
8140;BME280;4111;50.972;7.072;2022-12-07T04:54:14;101186.59;;;5.97;100.00
8140;BME280;4111;50.972;7.072;2022-12-07T04:56:41;101184.53;;;5.99;100.00
8140;BME280;4111;50.972;7.072;2022-12-07T04:59:09;101176.25;;;6.01;100.00
8140;BME280;4111;50.972;7.072;2022-12-07T05:01:37;101185.38;;;6.06;100.00
8140;BME280;4111;50.972;7.072;2022-12-07T05:04:03;101189.09;;;6.05;100.00
8140;BME280;4111;50.972;7.072;2022-12-07T05:06:29;101192.84;;;6.04;100.00
8140;BME280;4111;50.972;7.072;2022-12-07T05:08:56;101194.47;;;6.05;100.00
8140;BME280;4111;50.972;7.072;2022-12-07T05:11:23;101183.50;;;6.07;100.00
8140;BME280;4111;50.972;7.072;2022-12-07T05:14:21;101193.47;;;6.06;100.00
8140;BME280;4111;50.972;7.072;2022-12-07T05:16:50;101184.53;;;6.06;100.00
8140;BME280;4111;50.972;7.072;2022-12-07T05:19:17;101180.81;;;6.07;100.00
8140;BME280;4111;50.972;7.072;2022-12-07T05:21:45;101189.31;;;6.10;100.00
8140;BME280;4111;50.972;7.072;2022-12-07T05:24:13;101180.81;;;6.07;100.00
8140;BME280;4111;50.972;7.072;2022-12-07T05:26:40;101183.69;;;6.05;100.00
8140;BME280;4111;50.972;7.072;2022-12-07T05:29:07;101193.03;;;6.09;100.00
8140;BME280;4111;50.972;7.072;2022-12-07T05:31:33;101187.66;;;6.09;100.00
8140;BME280;4111;50.972;7.072;2022-12-07T05:34:00;101186.19;;;6.13;100.00
8140;BME280;4111;50.972;7.072;2022-12-07T05:36:27;101192.19;;;6.02;100.00
8140;BME280;4111;50.972;7.072;2022-12-07T05:38:54;101188.47;;;6.03;100.00
8140;BME280;4111;50.972;7.072;2022-12-07T05:41:21;101187.44;;;6.04;100.00
8140;BME280;4111;50.972;7.072;2022-12-07T05:44:06;101193.25;;;6.01;100.00
8140;BME280;4111;50.972;7.072;2022-12-07T05:46:33;101191.53;;;5.93;100.00
8140;BME280;4111;50.972;7.072;2022-12-07T05:49:00;101183.03;;;5.90;100.00
8140;BME280;4111;50.972;7.072;2022-12-07T05:51:27;101175.34;;;5.87;100.00
8140;BME280;4111;50.972;7.072;2022-12-07T05:53:53;101180.75;;;5.87;100.00
8140;BME280;4111;50.972;7.072;2022-12-07T05:56:20;101188.00;;;5.93;100.00
8140;BME280;4111;50.972;7.072;2022-12-07T05:58:46;101182.63;;;5.93;100.00
8140;BME280;4111;50.972;7.072;2022-12-07T06:01:31;101185.78;;;5.97;100.00
8140;BME280;4111;50.972;7.072;2022-12-07T06:03:58;101181.16;;;5.90;100.00
8140;BME280;4111;50.972;7.072;2022-12-07T06:06:24;101184.91;;;5.96;100.00
8140;BME280;4111;50.972;7.072;2022-12-07T06:08:51;101190.72;;;5.93;100.00
8140;BME280;4111;50.972;7.072;2022-12-07T06:11:17;101177.88;;;5.95;100.00
8140;BME280;4111;50.972;7.072;2022-12-07T06:14:02;101187.38;;;5.91;100.00
8140;BME280;4111;50.972;7.072;2022-12-07T06:16:29;101196.56;;;5.97;100.00
8140;BME280;4111;50.972;7.072;2022-12-07T06:18:55;101192.34;;;5.94;100.00
8140;BME280;4111;50.972;7.072;2022-12-07T06:21:22;101190.72;;;5.93;100.00
8140;BME280;4111;50.972;7.072;2022-12-07T06:23:48;101185.31;;;5.93;100.00
8140;BME280;4111;50.972;7.072;2022-12-07T06:26:14;101181.56;;;5.94;100.00
8140;BME280;4111;50.972;7.072;2022-12-07T06:28:41;101189.03;;;5.92;100.00
8140;BME280;4111;50.972;7.072;2022-12-07T06:31:07;101193.88;;;5.97;100.00
8140;BME280;4111;50.972;7.072;2022-12-07T06:33:39;101197.56;;;6.02;100.00
8140;BME280;4111;50.972;7.072;2022-12-07T06:36:06;101197.56;;;6.02;100.00
8140;BME280;4111;50.972;7.072;2022-12-07T06:38:32;101194.69;;;5.97;100.00
8140;BME280;4111;50.972;7.072;2022-12-07T06:40:58;101193.25;;;6.08;100.00
8140;BME280;4111;50.972;7.072;2022-12-07T06:43:25;101204.44;;;6.11;100.00
8140;BME280;4111;50.972;7.072;2022-12-07T06:45:52;101195.72;;;6.03;100.00
8140;BME280;4111;50.972;7.072;2022-12-07T06:48:18;101197.81;;;6.01;100.00
8140;BME280;4111;50.972;7.072;2022-12-07T06:50:46;101207.75;;;6.00;100.00
8140;BME280;4111;50.972;7.072;2022-12-07T06:53:19;101204.03;;;6.01;100.00
8140;BME280;4111;50.972;7.072;2022-12-07T06:55:46;101204.19;;;5.93;100.00
8140;BME280;4111;50.972;7.072;2022-12-07T06:58:12;101206.88;;;5.93;100.00
8140;BME280;4111;50.972;7.072;2022-12-07T07:00:38;101208.78;;;5.99;100.00
8140;BME280;4111;50.972;7.072;2022-12-07T07:03:05;101206.50;;;5.96;100.00
8140;BME280;4111;50.972;7.072;2022-12-07T07:05:31;101208.53;;;5.94;100.00
8140;BME280;4111;50.972;7.072;2022-12-07T07:07:58;101206.06;;;5.92;100.00
8140;BME280;4111;50.972;7.072;2022-12-07T07:10:44;101201.53;;;6.00;100.00
8140;BME280;4111;50.972;7.072;2022-12-07T07:13:11;101206.06;;;5.92;100.00
8140;BME280;4111;50.972;7.072;2022-12-07T07:15:38;101214.72;;;5.88;100.00
8140;BME280;4111;50.972;7.072;2022-12-07T07:18:05;101206.03;;;5.86;100.00
8140;BME280;4111;50.972;7.072;2022-12-07T07:20:33;101212.25;;;5.86;100.00
8140;BME280;4111;50.972;7.072;2022-12-07T07:23:00;101207.69;;;5.87;100.00
8140;BME280;4111;50.972;7.072;2022-12-07T07:25:26;101214.72;;;5.88;100.00
8140;BME280;4111;50.972;7.072;2022-12-07T07:27:53;101211.44;;;5.92;100.00
8140;BME280;4111;50.972;7.072;2022-12-07T07:30:20;101218.06;;;5.90;100.00
8140;BME280;4111;50.972;7.072;2022-12-07T07:32:46;101207.28;;;5.90;100.00
8140;BME280;4111;50.972;7.072;2022-12-07T07:35:13;101217.66;;;5.93;100.00
8140;BME280;4111;50.972;7.072;2022-12-07T07:37:40;101209.34;;;5.88;100.00
8140;BME280;4111;50.972;7.072;2022-12-07T07:40:08;101212.66;;;5.90;100.00
8140;BME280;4111;50.972;7.072;2022-12-07T07:42:35;101214.56;;;5.96;100.00
8140;BME280;4111;50.972;7.072;2022-12-07T07:45:02;101212.47;;;5.91;100.00
8140;BME280;4111;50.972;7.072;2022-12-07T07:47:28;101214.97;;;5.93;100.00
8140;BME280;4111;50.972;7.072;2022-12-07T07:49:55;101211.06;;;5.95;100.00
8140;BME280;4111;50.972;7.072;2022-12-07T07:52:22;101212.28;;;5.93;100.00
8140;BME280;4111;50.972;7.072;2022-12-07T07:54:48;101211.66;;;5.91;100.00
8140;BME280;4111;50.972;7.072;2022-12-07T07:57:16;101215.19;;;5.98;100.00
8140;BME280;4111;50.972;7.072;2022-12-07T07:59:42;101218.53;;;6.00;100.00
8140;BME280;4111;50.972;7.072;2022-12-07T08:02:14;101221.00;;;6.02;100.00
8140;BME280;4111;50.972;7.072;2022-12-07T08:04:41;101211.72;;;6.04;100.00
8140;BME280;4111;50.972;7.072;2022-12-07T08:07:08;101216.47;;;6.09;100.00
8140;BME280;4111;50.972;7.072;2022-12-07T08:09:35;101214.59;;;6.09;100.00
8140;BME280;4111;50.972;7.072;2022-12-07T08:12:01;101218.97;;;6.10;100.00
8140;BME280;4111;50.972;7.072;2022-12-07T08:14:28;101216.91;;;6.12;100.00
8140;BME280;4111;50.972;7.072;2022-12-07T08:16:55;101224.38;;;6.10;100.00
8140;BME280;4111;50.972;7.072;2022-12-07T08:19:21;101217.50;;;6.08;100.00
8140;BME280;4111;50.972;7.072;2022-12-07T08:21:48;101219.38;;;6.07;100.00
8140;BME280;4111;50.972;7.072;2022-12-07T08:24:15;101221.69;;;6.10;100.00
8140;BME280;4111;50.972;7.072;2022-12-07T08:26:41;101222.91;;;6.14;100.00
8140;BME280;4111;50.972;7.072;2022-12-07T08:29:08;101224.75;;;6.14;100.00
8140;BME280;4111;50.972;7.072;2022-12-07T08:31:36;101217.94;;;6.18;100.00
8140;BME280;4111;50.972;7.072;2022-12-07T08:34:02;101220.66;;;6.25;100.00
8140;BME280;4111;50.972;7.072;2022-12-07T08:36:29;101231.00;;;6.28;100.00
8140;BME280;4111;50.972;7.072;2022-12-07T08:38:55;101238.06;;;6.22;100.00
8140;BME280;4111;50.972;7.072;2022-12-07T08:41:41;101232.47;;;6.17;100.00
8140;BME280;4111;50.972;7.072;2022-12-07T08:44:08;101231.44;;;6.18;100.00
8140;BME280;4111;50.972;7.072;2022-12-07T08:46:42;101238.47;;;6.26;100.00
8140;BME280;4111;50.972;7.072;2022-12-07T08:49:13;101237.44;;;6.20;100.00
8140;BME280;4111;50.972;7.072;2022-12-07T08:51:41;101237.22;;;6.22;100.00
8140;BME280;4111;50.972;7.072;2022-12-07T08:54:11;101239.28;;;6.13;100.00
8140;BME280;4111;50.972;7.072;2022-12-07T08:56:39;101245.50;;;6.07;100.00
8140;BME280;4111;50.972;7.072;2022-12-07T08:59:06;101242.63;;;6.08;100.00
8140;BME280;4111;50.972;7.072;2022-12-07T09:01:33;101238.66;;;6.18;100.00
8140;BME280;4111;50.972;7.072;2022-12-07T09:03:59;101231.44;;;6.25;100.00
8140;BME280;4111;50.972;7.072;2022-12-07T09:06:27;101236.81;;;6.25;100.00
8140;BME280;4111;50.972;7.072;2022-12-07T09:08:57;101236.41;;;6.28;100.00
8140;BME280;4111;50.972;7.072;2022-12-07T09:11:24;101234.31;;;6.23;100.00
8140;BME280;4111;50.972;7.072;2022-12-07T09:13:54;101233.31;;;6.31;100.00
8140;BME280;4111;50.972;7.072;2022-12-07T09:16:21;101230.59;;;6.31;100.00
8140;BME280;4111;50.972;7.072;2022-12-07T09:18:48;101237.25;;;6.35;100.00
8140;BME280;4111;50.972;7.072;2022-12-07T09:21:14;101236.19;;;6.29;100.00
8140;BME280;4111;50.972;7.072;2022-12-07T09:23:41;101232.47;;;6.30;100.00
8140;BME280;4111;50.972;7.072;2022-12-07T09:26:08;101233.91;;;6.40;100.00
8140;BME280;4111;50.972;7.072;2022-12-07T09:28:36;101236.03;;;6.44;100.00
8140;BME280;4111;50.972;7.072;2022-12-07T09:31:04;101240.16;;;6.47;100.00
8140;BME280;4111;50.972;7.072;2022-12-07T09:33:58;101237.66;;;6.45;100.00
8140;BME280;4111;50.972;7.072;2022-12-07T09:36:25;101240.97;;;6.47;100.00
8140;BME280;4111;50.972;7.072;2022-12-07T09:38:52;101238.50;;;6.52;100.00
8140;BME280;4111;50.972;7.072;2022-12-07T09:41:19;101229.97;;;6.55;100.00
8140;BME280;4111;50.972;7.072;2022-12-07T09:43:47;101234.34;;;6.50;100.00
8140;BME280;4111;50.972;7.072;2022-12-07T09:46:15;101232.06;;;6.53;100.00
8140;BME280;4111;50.972;7.072;2022-12-07T09:48:44;101245.16;;;6.57;100.00
8140;BME280;4111;50.972;7.072;2022-12-07T09:51:16;101239.34;;;6.60;100.00
8140;BME280;4111;50.972;7.072;2022-12-07T09:53:49;101230.63;;;6.58;100.00
8140;BME280;4111;50.972;7.072;2022-12-07T09:56:17;101232.91;;;6.61;100.00
8140;BME280;4111;50.972;7.072;2022-12-07T09:58:45;101231.44;;;6.58;100.00
8140;BME280;4111;50.972;7.072;2022-12-07T10:01:15;101229.78;;;6.57;100.00
8140;BME280;4111;50.972;7.072;2022-12-07T10:03:48;101226.06;;;6.71;100.00
8140;BME280;4111;50.972;7.072;2022-12-07T10:06:15;101222.28;;;6.79;100.00
8140;BME280;4111;50.972;7.072;2022-12-07T10:08:42;101221.06;;;6.82;100.00
8140;BME280;4111;50.972;7.072;2022-12-07T10:11:10;101223.13;;;6.86;100.00
8140;BME280;4111;50.972;7.072;2022-12-07T10:13:40;101219.38;;;6.87;100.00
8140;BME280;4111;50.972;7.072;2022-12-07T10:16:40;101213.13;;;6.87;100.00
8140;BME280;4111;50.972;7.072;2022-12-07T10:19:30;101212.53;;;6.91;100.00
8140;BME280;4111;50.972;7.072;2022-12-07T10:22:12;101206.69;;;6.94;100.00
8140;BME280;4111;50.972;7.072;2022-12-07T10:24:41;101210.66;;;6.85;100.00
8140;BME280;4111;50.972;7.072;2022-12-07T10:27:20;101197.38;;;6.84;100.00
8140;BME280;4111;50.972;7.072;2022-12-07T10:29:50;101202.56;;;6.85;100.00
8140;BME280;4111;50.972;7.072;2022-12-07T10:34:44;101198.19;;;6.84;100.00
8140;BME280;4111;50.972;7.072;2022-12-07T10:37:27;101194.47;;;6.79;100.00
8140;BME280;4111;50.972;7.072;2022-12-07T10:39:57;101192.59;;;6.79;100.00
8140;BME280;4111;50.972;7.072;2022-12-07T10:42:28;101200.69;;;6.86;100.00
8140;BME280;4111;50.972;7.072;2022-12-07T10:45:16;101190.31;;;6.89;100.00
8140;BME280;4111;50.972;7.072;2022-12-07T10:53:44;101182.41;;;7.01;100.00
8140;BME280;4111;50.972;7.072;2022-12-07T10:56:29;101178.63;;;7.02;100.00
8140;BME280;4111;50.972;7.072;2022-12-07T11:01:40;101167.81;;;7.09;100.00
8140;BME280;4111;50.972;7.072;2022-12-07T11:07:11;101169.06;;;7.13;100.00
8140;BME280;4111;50.972;7.072;2022-12-07T11:12:57;101152.41;;;7.16;100.00
8140;BME280;4111;50.972;7.072;2022-12-07T11:15:49;101152.22;;;7.18;100.00
8140;BME280;4111;50.972;7.072;2022-12-07T11:18:25;101144.50;;;7.21;100.00
8140;BME280;4111;50.972;7.072;2022-12-07T11:24:14;101131.84;;;7.22;100.00
8140;BME280;4111;50.972;7.072;2022-12-07T11:27:05;101134.50;;;7.28;100.00
8140;BME280;4111;50.972;7.072;2022-12-07T11:37:26;101118.22;;;7.42;100.00
8140;BME280;4111;50.972;7.072;2022-12-07T11:40:13;101122.59;;;7.43;99.70
8140;BME280;4111;50.972;7.072;2022-12-07T11:42:46;101118.56;;;7.52;99.81
8140;BME280;4111;50.972;7.072;2022-12-07T11:45:37;101118.56;;;7.59;99.78
8140;BME280;4111;50.972;7.072;2022-12-07T11:48:17;101121.28;;;7.52;99.41
8140;BME280;4111;50.972;7.072;2022-12-07T11:50:51;101113.44;;;7.44;99.37
8140;BME280;4111;50.972;7.072;2022-12-07T11:53:25;101110.72;;;7.44;99.25
8140;BME280;4111;50.972;7.072;2022-12-07T11:55:57;101110.72;;;7.44;100.00
8140;BME280;4111;50.972;7.072;2022-12-07T12:01:18;101105.78;;;7.41;100.00
8140;BME280;4111;50.972;7.072;2022-12-07T12:04:19;101109.25;;;7.48;100.00
8140;BME280;4111;50.972;7.072;2022-12-07T12:06:50;101110.31;;;7.47;100.00
8140;BME280;4111;50.972;7.072;2022-12-07T12:09:20;101098.44;;;7.48;100.00
8140;BME280;4111;50.972;7.072;2022-12-07T12:18:13;101094.97;;;7.41;98.92
8140;BME280;4111;50.972;7.072;2022-12-07T12:20:51;101099.75;;;7.39;98.64
8140;BME280;4111;50.972;7.072;2022-12-07T12:23:24;101092.03;;;7.42;98.24
8140;BME280;4111;50.972;7.072;2022-12-07T12:25:59;101090.00;;;7.38;98.23
8140;BME280;4111;50.972;7.072;2022-12-07T12:28:39;101093.38;;;7.26;97.11
8140;BME280;4111;50.972;7.072;2022-12-07T12:33:50;101095.06;;;7.21;96.07
8140;BME280;4111;50.972;7.072;2022-12-07T12:36:24;101086.34;;;7.19;96.02
8140;BME280;4111;50.972;7.072;2022-12-07T12:39:09;101085.09;;;7.21;95.64
8140;BME280;4111;50.972;7.072;2022-12-07T12:47:00;101080.88;;;7.32;95.41
8140;BME280;4111;50.972;7.072;2022-12-07T12:51:56;101085.34;;;7.13;94.85
8140;BME280;4111;50.972;7.072;2022-12-07T12:54:32;101078.03;;;7.20;94.82
8140;BME280;4111;50.972;7.072;2022-12-07T13:02:25;101064.25;;;7.28;94.56
8140;BME280;4111;50.972;7.072;2022-12-07T13:05:23;101072.81;;;7.25;94.28
8140;BME280;4111;50.972;7.072;2022-12-07T13:07:54;101058.00;;;7.34;94.86
8140;BME280;4111;50.972;7.072;2022-12-07T13:17:59;101072.22;;;7.55;94.19
8140;BME280;4111;50.972;7.072;2022-12-07T13:20:42;101058.91;;;7.53;93.83
8140;BME280;4111;50.972;7.072;2022-12-07T13:23:10;101061.06;;;7.45;93.59
8140;BME280;4111;50.972;7.072;2022-12-07T13:25:43;101064.53;;;7.52;93.61
8140;BME280;4111;50.972;7.072;2022-12-07T13:28:19;101050.91;;;7.40;93.23
8140;BME280;4111;50.972;7.072;2022-12-07T13:33:35;101055.41;;;7.46;93.52
8140;BME280;4111;50.972;7.072;2022-12-07T13:36:02;101043.41;;;7.42;93.07
8140;BME280;4111;50.972;7.072;2022-12-07T13:38:32;101055.94;;;7.37;92.98
8140;BME280;4111;50.972;7.072;2022-12-07T13:41:20;101041.63;;;7.29;92.65
8140;BME280;4111;50.972;7.072;2022-12-07T13:44:04;101037.66;;;7.32;92.83
8140;BME280;4111;50.972;7.072;2022-12-07T13:49:25;101033.16;;;7.19;92.57
8140;BME280;4111;50.972;7.072;2022-12-07T13:51:52;101031.91;;;7.22;92.67
8140;BME280;4111;50.972;7.072;2022-12-07T13:54:20;101029.00;;;7.23;93.24
8140;BME280;4111;50.972;7.072;2022-12-07T13:56:50;101030.22;;;7.27;93.42
8140;BME280;4111;50.972;7.072;2022-12-07T13:59:22;101026.84;;;7.32;93.72
8140;BME280;4111;50.972;7.072;2022-12-07T14:01:51;101023.94;;;7.33;93.46
8140;BME280;4111;50.972;7.072;2022-12-07T14:04:19;101021.84;;;7.35;93.75
8140;BME280;4111;50.972;7.072;2022-12-07T14:06:50;101015.66;;;7.28;93.70
8140;BME280;4111;50.972;7.072;2022-12-07T14:09:20;101019.22;;;7.22;93.63
8140;BME280;4111;50.972;7.072;2022-12-07T14:11:50;101010.31;;;7.22;93.73
8140;BME280;4111;50.972;7.072;2022-12-07T14:14:20;101008.22;;;7.24;93.74
8140;BME280;4111;50.972;7.072;2022-12-07T14:17:14;101014.81;;;7.28;94.17
8140;BME280;4111;50.972;7.072;2022-12-07T14:19:47;101008.53;;;7.34;93.94
8140;BME280;4111;50.972;7.072;2022-12-07T14:22:21;101007.31;;;7.37;93.85
8140;BME280;4111;50.972;7.072;2022-12-07T14:24:48;101010.81;;;7.37;94.05
8140;BME280;4111;50.972;7.072;2022-12-07T14:27:19;101011.03;;;7.35;93.78
8140;BME280;4111;50.972;7.072;2022-12-07T14:29:47;101003.16;;;7.34;93.73
8140;BME280;4111;50.972;7.072;2022-12-07T14:32:25;101006.66;;;7.34;93.97
8140;BME280;4111;50.972;7.072;2022-12-07T14:34:58;101011.38;;;7.14;93.50
8140;BME280;4111;50.972;7.072;2022-12-07T14:37:27;100999.63;;;7.02;93.78
8140;BME280;4111;50.972;7.072;2022-12-07T14:39:54;100995.84;;;7.09;93.83
8140;BME280;4111;50.972;7.072;2022-12-07T14:42:23;100994.97;;;7.15;94.08
8140;BME280;4111;50.972;7.072;2022-12-07T14:44:50;100988.91;;;7.20;93.87
8140;BME280;4111;50.972;7.072;2022-12-07T14:47:17;100984.97;;;7.23;93.98
8140;BME280;4111;50.972;7.072;2022-12-07T14:50:04;100988.28;;;7.18;93.87
8140;BME280;4111;50.972;7.072;2022-12-07T14:52:32;100988.28;;;7.18;93.95
8140;BME280;4111;50.972;7.072;2022-12-07T14:55:24;100982.06;;;7.18;94.38
8140;BME280;4111;50.972;7.072;2022-12-07T14:57:51;100985.66;;;7.11;94.05
8140;BME280;4111;50.972;7.072;2022-12-07T15:00:19;100978.97;;;7.14;93.87
8140;BME280;4111;50.972;7.072;2022-12-07T15:02:47;100980.03;;;7.13;94.23
8140;BME280;4111;50.972;7.072;2022-12-07T15:05:13;100982.13;;;7.11;94.18
8140;BME280;4111;50.972;7.072;2022-12-07T15:07:42;100975.47;;;7.13;94.37